Airfield :
LOGIN :

Register | Disclaimer

   EN    FR    IT 

 










Legend :    VFR   Marginal VFR   IFR   Intensive IFR   Very Intensive IFR
Visi :
Ceiling :
>= 8 km
>= 3000ft
5 to 8 km
1000 to 3000 ft
1500m to 5 km
500 to 1000 ft
800 to 1500m
200 to 500 ft
< 800m
< 200 ft
Symbols :   Thunderstorms  Fog  Heavy snow  Heavy precipitations  Wind > 20 kt
SIGMETs :     Misc.  Thunderstorms  Icing  Turbulence  Mountain Waves  Volcanic Ashes






- Airport Elevation : 1276 ft
- IATA code : STR


EDDS - Stuttgart

CURRENT METAR :
  • 131520Z AUTO 05006KT 010V090 9999 FEW045 22/11 Q1014 NOSIG

EXPIRED METARs :
  • 131450Z AUTO VRB03KT 9999 FEW042 SCT049 22/12 Q1014 NOSIG
  • 131420Z AUTO VRB04KT 9999 FEW039 21/12 Q1014 NOSIG
  • 131350Z AUTO VRB05KT 9999 FEW039 22/12 Q1014 NOSIG
  • 131320Z AUTO VRB02KT 9999 BKN039 BKN047 20/12 Q1014 NOSIG
  • 131250Z AUTO VRB02KT 9999 BKN040 21/12 Q1014 NOSIG
  • 131220Z AUTO 10006KT 040V190 9999 SCT036 SCT044 21/13 Q1014 NOSIG
  • 131150Z AUTO 14006KT 090V190 9999 FEW033 20/12 Q1014 NOSIG
  • 131120Z AUTO 13005KT 070V180 CAVOK 20/12 Q1014 NOSIG
  • 131050Z AUTO VRB02KT 9999 FEW035 19/12 Q1015 NOSIG

TAF TAF EDDS
Valid from the 13 at 12:00 until the 14 at 12:00 UTC


131100Z 1312/1412 27005KT CAVOK
BECMG 1317/1319 VRB03KT



MET'MAP, your aeronautical weather chart ! - Copyright ORBIFLY December 2007 - Disclaimer

ORBIFLY MET'MAP TEAM :

Programming & Development : Alexandra Zaïnal
Original concept : Baudouin d'Aumeries
Technical & hardware support : Manuel Goepfert
Assistance : Marc-Olivier Méhu




SOURCES & CREDITS :

   NOAA